Terminal Aerodrome Forecast
Issued by NWS

Home | Current Version | Previous Version | Graphics & Text | Print | Product List | Glossary On
Versions: 1 2 3 4 5 6 7 8 9 10 11 12
000
FTUS43 KIWX 292300
TAFSBN
TAF
KSBN 292331Z 3000/3024 30004KT P6SM SKC
     FM300100 34015G22KT P6SM SCT008 BKN050
     FM300200 36014G20KT P6SM BKN008
     FM300500 36010G18KT 5SM BR VCSH OVC008
     FM301400 35010KT P6SM OVC010=

USA.gov is the U.S. government's official web portal to all federal, state and local government web resources and services.